sensor_id;sensor_type;location;lat;lon;timestamp;pressure;altitude;pressure_sealevel;temperature;humidity
50672;BME280;46021;55.882;37.654;2022-12-18T00:02:03;99110.31;;;-6.34;86.19
50672;BME280;46021;55.882;37.654;2022-12-18T00:04:30;99097.63;;;-6.34;86.10
50672;BME280;46021;55.882;37.654;2022-12-18T00:06:57;99091.00;;;-6.29;85.93
50672;BME280;46021;55.882;37.654;2022-12-18T00:09:25;99088.38;;;-6.32;85.74
50672;BME280;46021;55.882;37.654;2022-12-18T00:11:52;99070.63;;;-6.32;85.54
50672;BME280;46021;55.882;37.654;2022-12-18T00:14:18;99072.47;;;-6.26;85.85
50672;BME280;46021;55.882;37.654;2022-12-18T00:16:45;99061.47;;;-6.27;85.79
50672;BME280;46021;55.882;37.654;2022-12-18T00:19:13;99057.97;;;-6.30;85.80
50672;BME280;46021;55.882;37.654;2022-12-18T00:21:40;99047.94;;;-6.27;86.10
50672;BME280;46021;55.882;37.654;2022-12-18T00:24:08;99048.94;;;-6.20;85.94
50672;BME280;46021;55.882;37.654;2022-12-18T00:26:37;99056.56;;;-6.19;86.61
50672;BME280;46021;55.882;37.654;2022-12-18T00:29:05;99046.44;;;-6.19;86.32
50672;BME280;46021;55.882;37.654;2022-12-18T00:31:32;99036.44;;;-6.13;86.39
50672;BME280;46021;55.882;37.654;2022-12-18T00:34:00;99022.19;;;-6.41;86.27
50672;BME280;46021;55.882;37.654;2022-12-18T00:36:29;99031.63;;;-6.37;86.16
50672;BME280;46021;55.882;37.654;2022-12-18T00:38:57;99026.31;;;-6.46;86.42
50672;BME280;46021;55.882;37.654;2022-12-18T00:41:24;99020.47;;;-6.43;86.45
50672;BME280;46021;55.882;37.654;2022-12-18T00:44:10;99023.03;;;-6.42;86.63
50672;BME280;46021;55.882;37.654;2022-12-18T00:46:37;99008.72;;;-6.40;86.60
50672;BME280;46021;55.882;37.654;2022-12-18T00:49:05;99005.19;;;-6.45;86.33
50672;BME280;46021;55.882;37.654;2022-12-18T00:51:32;99004.13;;;-6.55;86.08
50672;BME280;46021;55.882;37.654;2022-12-18T00:53:59;98996.78;;;-6.44;86.09
50672;BME280;46021;55.882;37.654;2022-12-18T00:56:25;99004.53;;;-6.38;86.10
50672;BME280;46021;55.882;37.654;2022-12-18T00:58:52;98990.16;;;-6.39;86.00
50672;BME280;46021;55.882;37.654;2022-12-18T01:01:21;99005.34;;;-6.40;86.29
50672;BME280;46021;55.882;37.654;2022-12-18T01:03:47;98982.38;;;-6.45;86.52
50672;BME280;46021;55.882;37.654;2022-12-18T01:06:15;98982.09;;;-6.57;85.93
50672;BME280;46021;55.882;37.654;2022-12-18T01:08:42;98981.38;;;-6.52;86.36
50672;BME280;46021;55.882;37.654;2022-12-18T01:11:12;98989.75;;;-6.56;86.02
50672;BME280;46021;55.882;37.654;2022-12-18T01:13:40;98970.44;;;-6.49;86.46
50672;BME280;46021;55.882;37.654;2022-12-18T01:16:07;98984.63;;;-6.57;86.51
50672;BME280;46021;55.882;37.654;2022-12-18T01:18:35;98963.75;;;-6.47;85.80
50672;BME280;46021;55.882;37.654;2022-12-18T01:21:05;98972.41;;;-6.39;86.08
50672;BME280;46021;55.882;37.654;2022-12-18T01:23:32;98967.88;;;-6.51;86.26
50672;BME280;46021;55.882;37.654;2022-12-18T01:26:03;98945.72;;;-6.58;85.43
50672;BME280;46021;55.882;37.654;2022-12-18T01:28:30;98967.25;;;-6.42;85.75
50672;BME280;46021;55.882;37.654;2022-12-18T01:30:57;98950.47;;;-6.37;85.71
50672;BME280;46021;55.882;37.654;2022-12-18T01:33:23;98959.84;;;-6.34;85.44
50672;BME280;46021;55.882;37.654;2022-12-18T01:35:52;98965.00;;;-6.30;85.52
50672;BME280;46021;55.882;37.654;2022-12-18T01:38:20;98959.84;;;-6.34;84.90
50672;BME280;46021;55.882;37.654;2022-12-18T01:40:47;98945.47;;;-6.34;85.13
50672;BME280;46021;55.882;37.654;2022-12-18T01:43:14;98946.69;;;-6.18;84.85
50672;BME280;46021;55.882;37.654;2022-12-18T01:45:41;98955.97;;;-6.18;84.73
50672;BME280;46021;55.882;37.654;2022-12-18T01:48:08;98967.00;;;-6.16;85.01
50672;BME280;46021;55.882;37.654;2022-12-18T01:50:36;98951.81;;;-6.15;84.37
50672;BME280;46021;55.882;37.654;2022-12-18T01:53:07;98959.47;;;-6.13;84.50
50672;BME280;46021;55.882;37.654;2022-12-18T01:55:36;98952.75;;;-6.11;85.01
50672;BME280;46021;55.882;37.654;2022-12-18T01:58:05;98929.75;;;-6.19;84.19
50672;BME280;46021;55.882;37.654;2022-12-18T02:00:32;98946.84;;;-6.12;83.92
50672;BME280;46021;55.882;37.654;2022-12-18T02:02:59;98947.63;;;-6.14;83.94
50672;BME280;46021;55.882;37.654;2022-12-18T02:05:29;98950.22;;;-6.11;83.89
50672;BME280;46021;55.882;37.654;2022-12-18T02:08:02;98943.28;;;-6.20;83.50
50672;BME280;46021;55.882;37.654;2022-12-18T02:10:35;98956.66;;;-6.25;83.22
50672;BME280;46021;55.882;37.654;2022-12-18T02:13:08;98951.69;;;-6.21;83.58
50672;BME280;46021;55.882;37.654;2022-12-18T02:16:00;98955.75;;;-6.28;83.06
50672;BME280;46021;55.882;37.654;2022-12-18T02:18:32;98950.72;;;-6.26;83.32
50672;BME280;46021;55.882;37.654;2022-12-18T02:21:00;98949.09;;;-6.22;83.70
50672;BME280;46021;55.882;37.654;2022-12-18T02:23:40;98950.88;;;-6.18;83.48
50672;BME280;46021;55.882;37.654;2022-12-18T02:26:18;98942.19;;;-6.30;83.28
50672;BME280;46021;55.882;37.654;2022-12-18T02:28:49;98952.34;;;-6.28;83.00
50672;BME280;46021;55.882;37.654;2022-12-18T02:31:19;98959.94;;;-6.30;83.08
50672;BME280;46021;55.882;37.654;2022-12-18T02:33:47;98974.25;;;-6.32;83.01
50672;BME280;46021;55.882;37.654;2022-12-18T02:36:15;98962.53;;;-6.27;83.10
50672;BME280;46021;55.882;37.654;2022-12-18T02:38:44;98966.72;;;-6.29;83.38
50672;BME280;46021;55.882;37.654;2022-12-18T02:41:15;98967.47;;;-6.33;83.32
50672;BME280;46021;55.882;37.654;2022-12-18T02:43:46;98959.91;;;-6.31;82.88
50672;BME280;46021;55.882;37.654;2022-12-18T02:46:23;98954.72;;;-6.36;83.10
50672;BME280;46021;55.882;37.654;2022-12-18T02:48:52;98958.81;;;-6.41;82.89
50672;BME280;46021;55.882;37.654;2022-12-18T02:51:23;98960.47;;;-6.43;82.54
50672;BME280;46021;55.882;37.654;2022-12-18T02:53:56;98959.75;;;-6.39;82.56
50672;BME280;46021;55.882;37.654;2022-12-18T02:56:28;98953.59;;;-6.47;82.59
50672;BME280;46021;55.882;37.654;2022-12-18T02:58:58;98955.34;;;-6.46;82.62
50672;BME280;46021;55.882;37.654;2022-12-18T03:01:50;98950.25;;;-6.46;82.81
50672;BME280;46021;55.882;37.654;2022-12-18T03:04:20;98948.53;;;-6.47;82.24
50672;BME280;46021;55.882;37.654;2022-12-18T03:06:50;98938.47;;;-6.44;81.98
50672;BME280;46021;55.882;37.654;2022-12-18T03:09:21;98939.31;;;-6.43;81.92
50672;BME280;46021;55.882;37.654;2022-12-18T03:11:52;98942.53;;;-6.51;81.99
50672;BME280;46021;55.882;37.654;2022-12-18T03:14:38;98951.03;;;-6.49;81.83
50672;BME280;46021;55.882;37.654;2022-12-18T03:17:09;98948.53;;;-6.47;82.16
50672;BME280;46021;55.882;37.654;2022-12-18T03:19:37;98936.69;;;-6.48;82.39
50672;BME280;46021;55.882;37.654;2022-12-18T03:22:05;98929.53;;;-6.64;82.41
50672;BME280;46021;55.882;37.654;2022-12-18T03:24:42;98927.09;;;-6.60;81.88
50672;BME280;46021;55.882;37.654;2022-12-18T03:27:13;98937.31;;;-6.57;83.08
50672;BME280;46021;55.882;37.654;2022-12-18T03:29:42;98943.13;;;-6.61;82.27
50672;BME280;46021;55.882;37.654;2022-12-18T03:32:15;98952.53;;;-6.57;82.78
50672;BME280;46021;55.882;37.654;2022-12-18T03:34:42;98943.00;;;-6.67;82.02
50672;BME280;46021;55.882;37.654;2022-12-18T03:37:14;98939.66;;;-6.64;82.20
50672;BME280;46021;55.882;37.654;2022-12-18T03:39:41;98942.28;;;-6.60;82.64
50672;BME280;46021;55.882;37.654;2022-12-18T03:42:10;98944.13;;;-6.56;82.51
50672;BME280;46021;55.882;37.654;2022-12-18T03:44:49;98942.25;;;-6.63;82.69
50672;BME280;46021;55.882;37.654;2022-12-18T03:47:21;98955.09;;;-6.55;81.96
50672;BME280;46021;55.882;37.654;2022-12-18T03:49:50;98945.44;;;-6.70;82.08
50672;BME280;46021;55.882;37.654;2022-12-18T03:52:24;98948.63;;;-6.77;82.11
50672;BME280;46021;55.882;37.654;2022-12-18T03:54:53;98959.78;;;-6.71;82.98
50672;BME280;46021;55.882;37.654;2022-12-18T03:57:21;98971.72;;;-6.67;83.38
50672;BME280;46021;55.882;37.654;2022-12-18T03:59:54;98946.44;;;-6.63;82.16
50672;BME280;46021;55.882;37.654;2022-12-18T04:02:25;98940.38;;;-6.70;82.95
50672;BME280;46021;55.882;37.654;2022-12-18T04:04:55;98936.00;;;-6.76;83.01
50672;BME280;46021;55.882;37.654;2022-12-18T04:07:24;98939.38;;;-6.75;83.68
50672;BME280;46021;55.882;37.654;2022-12-18T04:09:51;98937.78;;;-6.72;83.53
50672;BME280;46021;55.882;37.654;2022-12-18T04:12:23;98936.97;;;-6.71;83.04
50672;BME280;46021;55.882;37.654;2022-12-18T04:14:50;98942.16;;;-6.66;83.04
50672;BME280;46021;55.882;37.654;2022-12-18T04:17:18;98943.00;;;-6.67;82.84
50672;BME280;46021;55.882;37.654;2022-12-18T04:19:45;98933.56;;;-6.73;83.36
50672;BME280;46021;55.882;37.654;2022-12-18T04:22:12;98947.06;;;-6.72;83.19
50672;BME280;46021;55.882;37.654;2022-12-18T04:24:43;98947.84;;;-6.75;83.44
50672;BME280;46021;55.882;37.654;2022-12-18T04:27:25;98946.38;;;-6.67;83.23
50672;BME280;46021;55.882;37.654;2022-12-18T04:29:52;98953.97;;;-6.67;83.30
50672;BME280;46021;55.882;37.654;2022-12-18T04:32:20;98963.03;;;-6.75;82.49
50672;BME280;46021;55.882;37.654;2022-12-18T04:34:47;98970.81;;;-6.69;82.90
50672;BME280;46021;55.882;37.654;2022-12-18T04:37:14;98970.06;;;-6.64;82.99
50672;BME280;46021;55.882;37.654;2022-12-18T04:39:42;98981.16;;;-6.61;82.53
50672;BME280;46021;55.882;37.654;2022-12-18T04:42:16;98991.28;;;-6.61;82.65
50672;BME280;46021;55.882;37.654;2022-12-18T04:44:43;98999.47;;;-6.71;82.50
50672;BME280;46021;55.882;37.654;2022-12-18T04:47:10;99010.38;;;-6.74;82.78
50672;BME280;46021;55.882;37.654;2022-12-18T04:49:38;99032.69;;;-6.60;82.15
50672;BME280;46021;55.882;37.654;2022-12-18T04:52:08;99024.91;;;-6.68;82.37
50672;BME280;46021;55.882;37.654;2022-12-18T04:54:35;99027.31;;;-6.73;82.44
50672;BME280;46021;55.882;37.654;2022-12-18T04:57:01;99022.16;;;-6.76;82.55
50672;BME280;46021;55.882;37.654;2022-12-18T04:59:28;99031.47;;;-6.75;82.37
50672;BME280;46021;55.882;37.654;2022-12-18T05:01:55;99016.06;;;-6.82;81.94
50672;BME280;46021;55.882;37.654;2022-12-18T05:04:22;99035.63;;;-6.77;82.53
50672;BME280;46021;55.882;37.654;2022-12-18T05:06:50;99036.38;;;-6.81;82.19
50672;BME280;46021;55.882;37.654;2022-12-18T05:09:17;99030.34;;;-6.86;82.39
50672;BME280;46021;55.882;37.654;2022-12-18T05:11:44;99026.09;;;-6.87;82.32
50672;BME280;46021;55.882;37.654;2022-12-18T05:14:11;99022.06;;;-6.79;82.54
50672;BME280;46021;55.882;37.654;2022-12-18T05:16:38;99015.06;;;-6.89;82.06
50672;BME280;46021;55.882;37.654;2022-12-18T05:19:05;99016.53;;;-6.97;82.23
50672;BME280;46021;55.882;37.654;2022-12-18T05:21:32;99021.75;;;-6.91;82.40
50672;BME280;46021;55.882;37.654;2022-12-18T05:24:00;99019.97;;;-6.94;82.36
50672;BME280;46021;55.882;37.654;2022-12-18T05:26:27;99018.28;;;-6.95;82.28
50672;BME280;46021;55.882;37.654;2022-12-18T05:28:57;99018.38;;;-6.90;82.32
50672;BME280;46021;55.882;37.654;2022-12-18T05:31:23;99017.03;;;-7.09;81.80
50672;BME280;46021;55.882;37.654;2022-12-18T05:33:50;99023.72;;;-7.11;82.48
50672;BME280;46021;55.882;37.654;2022-12-18T05:36:17;99044.84;;;-7.11;82.56
50672;BME280;46021;55.882;37.654;2022-12-18T05:38:44;99061.78;;;-7.10;82.44
50672;BME280;46021;55.882;37.654;2022-12-18T05:41:12;99061.66;;;-7.13;82.51
50672;BME280;46021;55.882;37.654;2022-12-18T05:43:40;99050.78;;;-7.10;82.11
50672;BME280;46021;55.882;37.654;2022-12-18T05:46:08;99039.19;;;-7.02;82.30
50672;BME280;46021;55.882;37.654;2022-12-18T05:48:35;99054.16;;;-7.10;81.86
50672;BME280;46021;55.882;37.654;2022-12-18T05:51:05;99072.06;;;-7.03;82.06
50672;BME280;46021;55.882;37.654;2022-12-18T05:53:32;99078.59;;;-7.12;82.02
50672;BME280;46021;55.882;37.654;2022-12-18T05:55:59;99083.50;;;-7.18;81.73
50672;BME280;46021;55.882;37.654;2022-12-18T05:58:28;99076.53;;;-7.25;81.45
50672;BME280;46021;55.882;37.654;2022-12-18T06:00:55;99099.81;;;-7.08;82.69
50672;BME280;46021;55.882;37.654;2022-12-18T06:03:21;99097.97;;;-7.14;82.76
50672;BME280;46021;55.882;37.654;2022-12-18T06:05:48;99102.88;;;-7.18;81.40
50672;BME280;46021;55.882;37.654;2022-12-18T06:08:15;99105.69;;;-7.09;81.73
50672;BME280;46021;55.882;37.654;2022-12-18T06:10:42;99114.41;;;-6.99;82.05
50672;BME280;46021;55.882;37.654;2022-12-18T06:13:08;99114.41;;;-6.99;82.01
50672;BME280;46021;55.882;37.654;2022-12-18T06:15:37;99113.72;;;-6.94;81.46
50672;BME280;46021;55.882;37.654;2022-12-18T06:18:04;99111.28;;;-6.91;80.89
50672;BME280;46021;55.882;37.654;2022-12-18T06:20:31;99114.41;;;-6.99;81.09
50672;BME280;46021;55.882;37.654;2022-12-18T06:25:43;99121.25;;;-6.97;81.81
50672;BME280;46021;55.882;37.654;2022-12-18T06:28:10;99130.06;;;-6.84;82.03
50672;BME280;46021;55.882;37.654;2022-12-18T06:30:38;99133.56;;;-6.79;81.78
50672;BME280;46021;55.882;37.654;2022-12-18T06:33:05;99129.81;;;-6.93;81.10
50672;BME280;46021;55.882;37.654;2022-12-18T06:35:32;99143.59;;;-6.83;82.42
50672;BME280;46021;55.882;37.654;2022-12-18T06:37:58;99144.44;;;-6.83;82.40
50672;BME280;46021;55.882;37.654;2022-12-18T06:40:27;99145.50;;;-6.75;82.18
50672;BME280;46021;55.882;37.654;2022-12-18T06:42:54;99140.16;;;-6.86;81.42
50672;BME280;46021;55.882;37.654;2022-12-18T06:45:21;99146.34;;;-6.76;81.28
50672;BME280;46021;55.882;37.654;2022-12-18T06:47:49;99143.72;;;-6.79;81.43
50672;BME280;46021;55.882;37.654;2022-12-18T06:50:16;99145.28;;;-6.82;81.08
50672;BME280;46021;55.882;37.654;2022-12-18T06:52:42;99148.75;;;-6.80;80.34
50672;BME280;46021;55.882;37.654;2022-12-18T06:55:09;99159.38;;;-6.92;80.68
50672;BME280;46021;55.882;37.654;2022-12-18T06:57:36;99174.16;;;-6.77;80.95
50672;BME280;46021;55.882;37.654;2022-12-18T07:00:04;99167.06;;;-6.89;80.88
50672;BME280;46021;55.882;37.654;2022-12-18T07:02:31;99192.13;;;-6.70;80.25
50672;BME280;46021;55.882;37.654;2022-12-18T07:05:00;99189.81;;;-6.62;80.58
50672;BME280;46021;55.882;37.654;2022-12-18T07:07:28;99191.66;;;-6.56;80.14
50672;BME280;46021;55.882;37.654;2022-12-18T07:09:55;99210.66;;;-6.72;80.24
50672;BME280;46021;55.882;37.654;2022-12-18T07:12:22;99199.06;;;-6.64;79.78
50672;BME280;46021;55.882;37.654;2022-12-18T07:14:49;99202.84;;;-6.50;80.64
50672;BME280;46021;55.882;37.654;2022-12-18T07:17:16;99210.56;;;-6.45;80.78
50672;BME280;46021;55.882;37.654;2022-12-18T07:19:43;99206.59;;;-6.37;80.05
50672;BME280;46021;55.882;37.654;2022-12-18T07:22:11;99200.78;;;-6.33;80.31
50672;BME280;46021;55.882;37.654;2022-12-18T07:24:38;99210.31;;;-6.25;79.55
50672;BME280;46021;55.882;37.654;2022-12-18T07:27:04;99204.28;;;-6.28;79.19
50672;BME280;46021;55.882;37.654;2022-12-18T07:29:31;99200.84;;;-6.30;79.31
50672;BME280;46021;55.882;37.654;2022-12-18T07:31:58;99210.16;;;-6.30;79.11
50672;BME280;46021;55.882;37.654;2022-12-18T07:34:25;99210.78;;;-6.37;79.35
50672;BME280;46021;55.882;37.654;2022-12-18T07:36:52;99238.00;;;-6.32;79.02
50672;BME280;46021;55.882;37.654;2022-12-18T07:39:20;99247.41;;;-6.28;79.02
50672;BME280;46021;55.882;37.654;2022-12-18T07:41:46;99260.88;;;-6.30;78.57
50672;BME280;46021;55.882;37.654;2022-12-18T07:44:34;99261.19;;;-6.19;78.90
50672;BME280;46021;55.882;37.654;2022-12-18T07:47:00;99250.88;;;-6.25;78.87
50672;BME280;46021;55.882;37.654;2022-12-18T07:49:27;99263.78;;;-6.16;78.78
50672;BME280;46021;55.882;37.654;2022-12-18T07:51:55;99255.97;;;-6.24;78.16
50672;BME280;46021;55.882;37.654;2022-12-18T07:54:24;99252.69;;;-6.21;78.36
50672;BME280;46021;55.882;37.654;2022-12-18T07:56:51;99246.44;;;-6.33;77.59
50672;BME280;46021;55.882;37.654;2022-12-18T07:59:18;99251.09;;;-6.18;78.40
50672;BME280;46021;55.882;37.654;2022-12-18T08:01:45;99257.59;;;-6.26;78.06
50672;BME280;46021;55.882;37.654;2022-12-18T08:04:13;99254.31;;;-6.23;77.99
50672;BME280;46021;55.882;37.654;2022-12-18T08:06:40;99262.56;;;-6.31;77.69
50672;BME280;46021;55.882;37.654;2022-12-18T08:09:10;99265.00;;;-6.34;77.98
50672;BME280;46021;55.882;37.654;2022-12-18T08:11:39;99243.63;;;-6.42;77.57
50672;BME280;46021;55.882;37.654;2022-12-18T08:14:06;99265.94;;;-6.30;77.80
50672;BME280;46021;55.882;37.654;2022-12-18T08:16:33;99263.09;;;-6.41;76.88
50672;BME280;46021;55.882;37.654;2022-12-18T08:18:59;99274.56;;;-6.25;77.48
50672;BME280;46021;55.882;37.654;2022-12-18T08:21:27;99288.56;;;-6.08;78.13
50672;BME280;46021;55.882;37.654;2022-12-18T08:23:55;99291.25;;;-6.03;77.55
50672;BME280;46021;55.882;37.654;2022-12-18T08:26:23;99307.19;;;-6.07;77.33
50672;BME280;46021;55.882;37.654;2022-12-18T08:28:52;99313.38;;;-5.99;77.48
50672;BME280;46021;55.882;37.654;2022-12-18T08:31:20;99308.38;;;-5.94;77.32
50672;BME280;46021;55.882;37.654;2022-12-18T08:33:48;99321.88;;;-5.97;76.79
50672;BME280;46021;55.882;37.654;2022-12-18T08:36:15;99333.06;;;-5.89;76.76
50672;BME280;46021;55.882;37.654;2022-12-18T08:38:42;99339.13;;;-5.83;77.18
50672;BME280;46021;55.882;37.654;2022-12-18T08:41:10;99321.88;;;-5.97;77.02
50672;BME280;46021;55.882;37.654;2022-12-18T08:43:37;99338.25;;;-5.85;77.66
50672;BME280;46021;55.882;37.654;2022-12-18T08:46:23;99343.38;;;-5.82;77.27
50672;BME280;46021;55.882;37.654;2022-12-18T08:48:51;99346.59;;;-5.90;76.84
50672;BME280;46021;55.882;37.654;2022-12-18T08:51:19;99357.81;;;-5.81;77.41
50672;BME280;46021;55.882;37.654;2022-12-18T08:53:46;99352.91;;;-5.75;77.44
50672;BME280;46021;55.882;37.654;2022-12-18T08:56:13;99345.31;;;-5.74;77.43
50672;BME280;46021;55.882;37.654;2022-12-18T08:58:40;99341.69;;;-5.83;77.02
50672;BME280;46021;55.882;37.654;2022-12-18T09:01:09;99342.41;;;-5.88;77.27
50672;BME280;46021;55.882;37.654;2022-12-18T09:03:38;99337.91;;;-5.98;77.02
50672;BME280;46021;55.882;37.654;2022-12-18T09:06:05;99341.56;;;-5.87;77.43
50672;BME280;46021;55.882;37.654;2022-12-18T09:08:35;99347.56;;;-5.84;77.20
50672;BME280;46021;55.882;37.654;2022-12-18T09:11:02;99343.16;;;-5.90;77.38
50672;BME280;46021;55.882;37.654;2022-12-18T09:13:29;99343.53;;;-5.78;77.51
50672;BME280;46021;55.882;37.654;2022-12-18T09:15:56;99339.31;;;-5.77;77.50
50672;BME280;46021;55.882;37.654;2022-12-18T09:18:23;99354.63;;;-5.74;77.14
50672;BME280;46021;55.882;37.654;2022-12-18T09:20:51;99370.97;;;-5.64;77.46
50672;BME280;46021;55.882;37.654;2022-12-18T09:23:19;99350.50;;;-5.71;77.63
50672;BME280;46021;55.882;37.654;2022-12-18T09:25:46;99375.19;;;-5.65;77.36
50672;BME280;46021;55.882;37.654;2022-12-18T09:28:16;99358.22;;;-5.66;77.03
50672;BME280;46021;55.882;37.654;2022-12-18T09:30:44;99368.50;;;-5.63;77.28
50672;BME280;46021;55.882;37.654;2022-12-18T09:33:12;99377.16;;;-5.55;77.51
50672;BME280;46021;55.882;37.654;2022-12-18T09:35:39;99379.44;;;-5.64;77.74
50672;BME280;46021;55.882;37.654;2022-12-18T09:38:07;99394.63;;;-5.67;77.29
50672;BME280;46021;55.882;37.654;2022-12-18T09:40:36;99398.97;;;-5.63;77.64
50672;BME280;46021;55.882;37.654;2022-12-18T09:43:06;99412.81;;;-5.52;77.60
50672;BME280;46021;55.882;37.654;2022-12-18T09:45:35;99403.47;;;-5.53;77.51
50672;BME280;46021;55.882;37.654;2022-12-18T09:48:05;99413.53;;;-5.56;76.74
50672;BME280;46021;55.882;37.654;2022-12-18T09:50:36;99423.88;;;-5.50;76.66
50672;BME280;46021;55.882;37.654;2022-12-18T09:53:06;99410.91;;;-5.59;77.05
50672;BME280;46021;55.882;37.654;2022-12-18T09:55:40;99432.22;;;-5.54;76.80
50672;BME280;46021;55.882;37.654;2022-12-18T09:58:12;99421.94;;;-5.58;76.86
50672;BME280;46021;55.882;37.654;2022-12-18T10:00:41;99435.69;;;-5.50;76.97
50672;BME280;46021;55.882;37.654;2022-12-18T10:03:08;99430.44;;;-5.56;76.26
50672;BME280;46021;55.882;37.654;2022-12-18T10:05:37;99419.38;;;-5.58;76.29
50672;BME280;46021;55.882;37.654;2022-12-18T10:08:08;99425.25;;;-5.61;76.15
50672;BME280;46021;55.882;37.654;2022-12-18T10:10:38;99443.03;;;-5.61;76.85
50672;BME280;46021;55.882;37.654;2022-12-18T10:13:12;99439.66;;;-5.60;76.62
50672;BME280;46021;55.882;37.654;2022-12-18T10:15:45;99431.69;;;-5.72;75.96
50672;BME280;46021;55.882;37.654;2022-12-18T10:18:19;99445.56;;;-5.61;76.55
50672;BME280;46021;55.882;37.654;2022-12-18T10:20:50;99435.91;;;-5.73;76.89
50672;BME280;46021;55.882;37.654;2022-12-18T10:23:20;99432.31;;;-5.79;76.90
50672;BME280;46021;55.882;37.654;2022-12-18T10:25:51;99448.63;;;-5.73;77.37
50672;BME280;46021;55.882;37.654;2022-12-18T10:28:21;99436.63;;;-5.77;76.98
50672;BME280;46021;55.882;37.654;2022-12-18T10:30:49;99442.38;;;-5.82;77.32
50672;BME280;46021;55.882;37.654;2022-12-18T10:33:17;99449.28;;;-5.78;77.29
50672;BME280;46021;55.882;37.654;2022-12-18T10:35:44;99453.53;;;-5.77;77.07
50672;BME280;46021;55.882;37.654;2022-12-18T10:40:50;99462.06;;;-5.75;77.06
50672;BME280;46021;55.882;37.654;2022-12-18T10:43:19;99448.22;;;-5.85;77.42
50672;BME280;46021;55.882;37.654;2022-12-18T10:45:58;99450.72;;;-5.87;77.24
50672;BME280;46021;55.882;37.654;2022-12-18T10:48:26;99463.19;;;-5.94;78.23
50672;BME280;46021;55.882;37.654;2022-12-18T10:50:53;99472.75;;;-5.85;78.24
50672;BME280;46021;55.882;37.654;2022-12-18T10:53:21;99472.94;;;-5.79;77.97
50672;BME280;46021;55.882;37.654;2022-12-18T10:55:49;99464.09;;;-5.92;77.89
50672;BME280;46021;55.882;37.654;2022-12-18T10:58:16;99467.56;;;-5.89;77.90
50672;BME280;46021;55.882;37.654;2022-12-18T11:01:01;99470.16;;;-5.87;77.96
50672;BME280;46021;55.882;37.654;2022-12-18T11:03:31;99467.03;;;-6.07;78.36
50672;BME280;46021;55.882;37.654;2022-12-18T11:06:05;99472.75;;;-6.14;78.52
50672;BME280;46021;55.882;37.654;2022-12-18T11:08:32;99489.13;;;-6.04;78.71
50672;BME280;46021;55.882;37.654;2022-12-18T11:10:59;99478.53;;;-6.18;79.10
50672;BME280;46021;55.882;37.654;2022-12-18T11:13:26;99493.00;;;-6.16;79.57
50672;BME280;46021;55.882;37.654;2022-12-18T11:15:53;99504.19;;;-6.09;79.39
50672;BME280;46021;55.882;37.654;2022-12-18T11:18:22;99500.44;;;-6.20;79.49
50672;BME280;46021;55.882;37.654;2022-12-18T11:20:53;99511.06;;;-6.05;79.19
50672;BME280;46021;55.882;37.654;2022-12-18T11:23:21;99504.19;;;-6.09;79.25
50672;BME280;46021;55.882;37.654;2022-12-18T11:25:52;99500.75;;;-6.11;79.16
50672;BME280;46021;55.882;37.654;2022-12-18T11:28:34;99514.56;;;-6.03;78.59
50672;BME280;46021;55.882;37.654;2022-12-18T11:31:21;99520.63;;;-5.98;78.50
50672;BME280;46021;55.882;37.654;2022-12-18T11:34:01;99535.19;;;-5.91;78.27
50672;BME280;46021;55.882;37.654;2022-12-18T11:36:32;99512.09;;;-6.00;78.31
50672;BME280;46021;55.882;37.654;2022-12-18T11:39:01;99524.94;;;-5.94;77.98
50672;BME280;46021;55.882;37.654;2022-12-18T11:41:30;99538.53;;;-5.92;78.10
50672;BME280;46021;55.882;37.654;2022-12-18T11:44:13;99529.06;;;-5.99;78.00
50672;BME280;46021;55.882;37.654;2022-12-18T11:46:43;99524.78;;;-6.00;78.22
50672;BME280;46021;55.882;37.654;2022-12-18T11:49:14;99531.31;;;-6.08;78.09
50672;BME280;46021;55.882;37.654;2022-12-18T11:51:47;99521.50;;;-6.23;78.35
50672;BME280;46021;55.882;37.654;2022-12-18T11:54:15;99531.84;;;-6.17;78.12
50672;BME280;46021;55.882;37.654;2022-12-18T11:56:43;99539.72;;;-6.09;78.37
50672;BME280;46021;55.882;37.654;2022-12-18T11:59:15;99548.81;;;-6.16;78.23
50672;BME280;46021;55.882;37.654;2022-12-18T12:01:48;99539.88;;;-6.30;78.24
50672;BME280;46021;55.882;37.654;2022-12-18T12:04:21;99539.94;;;-6.29;78.29
50672;BME280;46021;55.882;37.654;2022-12-18T12:06:57;99557.88;;;-6.22;78.23
50672;BME280;46021;55.882;37.654;2022-12-18T12:09:30;99566.41;;;-6.20;78.51
50672;BME280;46021;55.882;37.654;2022-12-18T12:12:05;99580.97;;;-6.15;78.39
50672;BME280;46021;55.882;37.654;2022-12-18T12:14:40;99572.38;;;-6.18;77.99
50672;BME280;46021;55.882;37.654;2022-12-18T12:17:10;99604.06;;;-6.33;77.92
50672;BME280;46021;55.882;37.654;2022-12-18T12:19:42;99598.06;;;-6.35;78.16
50672;BME280;46021;55.882;37.654;2022-12-18T12:22:16;99601.88;;;-6.22;78.10
50672;BME280;46021;55.882;37.654;2022-12-18T12:24:49;99606.91;;;-6.23;78.08
50672;BME280;46021;55.882;37.654;2022-12-18T12:27:20;99606.25;;;-6.18;78.15
50672;BME280;46021;55.882;37.654;2022-12-18T12:29:55;99624.28;;;-6.10;78.31
50672;BME280;46021;55.882;37.654;2022-12-18T12:32:30;99631.97;;;-6.07;78.10
50672;BME280;46021;55.882;37.654;2022-12-18T12:35:06;99629.28;;;-6.12;77.68
50672;BME280;46021;55.882;37.654;2022-12-18T12:37:39;99624.81;;;-6.19;77.78
50672;BME280;46021;55.882;37.654;2022-12-18T12:40:10;99636.72;;;-6.16;77.56
50672;BME280;46021;55.882;37.654;2022-12-18T12:42:39;99629.69;;;-6.25;77.64
50672;BME280;46021;55.882;37.654;2022-12-18T12:45:26;99645.63;;;-6.28;77.43
50672;BME280;46021;55.882;37.654;2022-12-18T12:47:54;99639.81;;;-6.25;77.41
50672;BME280;46021;55.882;37.654;2022-12-18T12:50:23;99652.56;;;-6.23;77.70
50672;BME280;46021;55.882;37.654;2022-12-18T12:52:52;99662.81;;;-6.20;77.60
50672;BME280;46021;55.882;37.654;2022-12-18T12:55:20;99667.16;;;-6.16;77.68
50672;BME280;46021;55.882;37.654;2022-12-18T12:57:48;99661.19;;;-6.18;77.88
50672;BME280;46021;55.882;37.654;2022-12-18T13:00:19;99675.81;;;-6.11;77.52
50672;BME280;46021;55.882;37.654;2022-12-18T13:02:48;99658.66;;;-6.18;77.56
50672;BME280;46021;55.882;37.654;2022-12-18T13:05:18;99679.78;;;-6.19;77.83
50672;BME280;46021;55.882;37.654;2022-12-18T13:07:50;99704.09;;;-6.24;78.40